sensor_id;sensor_type;location;lat;lon;timestamp;P1;durP1;ratioP1;P2;durP2;ratioP2
32319;SDS011;19080;51.750;5.888;2022-09-17T00:00:50;9.00;;;2.97;;
32319;SDS011;19080;51.750;5.888;2022-09-17T00:03:17;13.48;;;2.63;;
32319;SDS011;19080;51.750;5.888;2022-09-17T00:05:44;8.63;;;1.58;;
32319;SDS011;19080;51.750;5.888;2022-09-17T00:08:11;13.02;;;2.22;;
32319;SDS011;19080;51.750;5.888;2022-09-17T00:10:40;11.82;;;3.00;;
32319;SDS011;19080;51.750;5.888;2022-09-17T00:13:07;15.60;;;3.20;;
32319;SDS011;19080;51.750;5.888;2022-09-17T00:15:41;13.15;;;2.35;;
32319;SDS011;19080;51.750;5.888;2022-09-17T00:18:07;17.95;;;2.95;;
32319;SDS011;19080;51.750;5.888;2022-09-17T00:20:38;11.55;;;2.90;;
32319;SDS011;19080;51.750;5.888;2022-09-17T00:23:04;11.57;;;2.83;;
32319;SDS011;19080;51.750;5.888;2022-09-17T00:25:31;8.13;;;1.65;;
32319;SDS011;19080;51.750;5.888;2022-09-17T00:27:58;13.05;;;2.67;;
32319;SDS011;19080;51.750;5.888;2022-09-17T00:30:24;17.58;;;3.20;;
32319;SDS011;19080;51.750;5.888;2022-09-17T00:32:50;13.25;;;2.78;;
32319;SDS011;19080;51.750;5.888;2022-09-17T00:35:18;10.77;;;2.60;;
32319;SDS011;19080;51.750;5.888;2022-09-17T00:37:44;15.60;;;2.55;;
32319;SDS011;19080;51.750;5.888;2022-09-17T00:40:11;10.63;;;2.55;;
32319;SDS011;19080;51.750;5.888;2022-09-17T00:42:37;8.68;;;2.20;;
32319;SDS011;19080;51.750;5.888;2022-09-17T00:45:04;13.95;;;2.10;;
32319;SDS011;19080;51.750;5.888;2022-09-17T00:47:31;9.93;;;2.15;;
32319;SDS011;19080;51.750;5.888;2022-09-17T00:50:03;12.68;;;2.40;;
32319;SDS011;19080;51.750;5.888;2022-09-17T00:52:32;9.52;;;2.50;;
32319;SDS011;19080;51.750;5.888;2022-09-17T00:55:05;11.68;;;2.15;;
32319;SDS011;19080;51.750;5.888;2022-09-17T00:57:33;12.60;;;2.67;;
32319;SDS011;19080;51.750;5.888;2022-09-17T00:59:59;8.73;;;2.13;;
32319;SDS011;19080;51.750;5.888;2022-09-17T01:02:26;12.00;;;2.70;;
32319;SDS011;19080;51.750;5.888;2022-09-17T01:04:52;11.02;;;2.47;;
32319;SDS011;19080;51.750;5.888;2022-09-17T01:07:39;11.55;;;2.47;;
32319;SDS011;19080;51.750;5.888;2022-09-17T01:10:19;11.80;;;2.22;;
32319;SDS011;19080;51.750;5.888;2022-09-17T01:13:02;9.05;;;2.15;;
32319;SDS011;19080;51.750;5.888;2022-09-17T01:25:47;9.02;;;2.20;;
32319;SDS011;19080;51.750;5.888;2022-09-17T01:30:54;11.35;;;2.28;;
32319;SDS011;19080;51.750;5.888;2022-09-17T01:33:34;8.68;;;2.50;;
32319;SDS011;19080;51.750;5.888;2022-09-17T01:41:51;8.80;;;2.47;;
32319;SDS011;19080;51.750;5.888;2022-09-17T01:44:25;10.60;;;2.70;;
32319;SDS011;19080;51.750;5.888;2022-09-17T01:46:52;8.73;;;2.35;;
32319;SDS011;19080;51.750;5.888;2022-09-17T01:49:20;10.07;;;2.80;;
32319;SDS011;19080;51.750;5.888;2022-09-17T01:51:50;13.60;;;2.97;;
32319;SDS011;19080;51.750;5.888;2022-09-17T01:54:26;10.60;;;2.58;;
32319;SDS011;19080;51.750;5.888;2022-09-17T01:56:55;17.85;;;4.07;;
32319;SDS011;19080;51.750;5.888;2022-09-17T01:59:28;15.50;;;5.47;;
32319;SDS011;19080;51.750;5.888;2022-09-17T02:01:57;17.50;;;4.70;;
32319;SDS011;19080;51.750;5.888;2022-09-17T02:04:35;16.45;;;4.28;;
32319;SDS011;19080;51.750;5.888;2022-09-17T02:07:04;16.75;;;5.38;;
32319;SDS011;19080;51.750;5.888;2022-09-17T02:09:39;14.30;;;3.92;;
32319;SDS011;19080;51.750;5.888;2022-09-17T02:12:09;15.93;;;4.25;;
32319;SDS011;19080;51.750;5.888;2022-09-17T02:14:51;18.75;;;3.95;;
32319;SDS011;19080;51.750;5.888;2022-09-17T02:19:52;12.43;;;2.85;;
32319;SDS011;19080;51.750;5.888;2022-09-17T02:22:24;11.18;;;2.80;;
32319;SDS011;19080;51.750;5.888;2022-09-17T02:29:51;12.10;;;3.13;;
32319;SDS011;19080;51.750;5.888;2022-09-17T02:32:18;7.63;;;2.63;;
32319;SDS011;19080;51.750;5.888;2022-09-17T02:34:45;13.07;;;3.22;;
32319;SDS011;19080;51.750;5.888;2022-09-17T02:37:11;11.38;;;3.15;;
32319;SDS011;19080;51.750;5.888;2022-09-17T02:39:37;8.43;;;2.10;;
32319;SDS011;19080;51.750;5.888;2022-09-17T02:42:12;16.40;;;2.90;;
32319;SDS011;19080;51.750;5.888;2022-09-17T02:44:46;11.40;;;2.78;;
32319;SDS011;19080;51.750;5.888;2022-09-17T02:47:22;6.60;;;2.22;;
32319;SDS011;19080;51.750;5.888;2022-09-17T02:52:42;12.85;;;3.28;;
32319;SDS011;19080;51.750;5.888;2022-09-17T02:57:59;12.63;;;2.30;;
32319;SDS011;19080;51.750;5.888;2022-09-17T03:00:27;15.93;;;2.92;;
32319;SDS011;19080;51.750;5.888;2022-09-17T03:02:58;17.58;;;2.90;;
32319;SDS011;19080;51.750;5.888;2022-09-17T03:05:26;8.77;;;2.00;;
32319;SDS011;19080;51.750;5.888;2022-09-17T03:07:53;9.90;;;2.25;;
32319;SDS011;19080;51.750;5.888;2022-09-17T03:10:20;10.23;;;1.77;;
32319;SDS011;19080;51.750;5.888;2022-09-17T03:12:47;13.40;;;2.17;;
32319;SDS011;19080;51.750;5.888;2022-09-17T03:15:13;7.90;;;1.70;;
32319;SDS011;19080;51.750;5.888;2022-09-17T03:17:40;9.35;;;2.10;;
32319;SDS011;19080;51.750;5.888;2022-09-17T03:20:06;15.60;;;3.35;;
32319;SDS011;19080;51.750;5.888;2022-09-17T03:22:33;7.28;;;2.10;;
32319;SDS011;19080;51.750;5.888;2022-09-17T03:25:00;15.60;;;2.72;;
32319;SDS011;19080;51.750;5.888;2022-09-17T03:27:28;14.52;;;2.83;;
32319;SDS011;19080;51.750;5.888;2022-09-17T03:29:55;14.15;;;2.00;;
32319;SDS011;19080;51.750;5.888;2022-09-17T03:32:21;9.75;;;1.80;;
32319;SDS011;19080;51.750;5.888;2022-09-17T03:34:47;10.57;;;1.98;;
32319;SDS011;19080;51.750;5.888;2022-09-17T03:37:14;11.77;;;2.03;;
32319;SDS011;19080;51.750;5.888;2022-09-17T03:39:40;11.32;;;2.65;;
32319;SDS011;19080;51.750;5.888;2022-09-17T03:42:07;8.38;;;1.65;;
32319;SDS011;19080;51.750;5.888;2022-09-17T03:44:33;8.10;;;1.85;;
32319;SDS011;19080;51.750;5.888;2022-09-17T03:46:59;6.03;;;1.42;;
32319;SDS011;19080;51.750;5.888;2022-09-17T03:49:26;6.82;;;1.40;;
32319;SDS011;19080;51.750;5.888;2022-09-17T03:51:52;8.68;;;2.20;;
32319;SDS011;19080;51.750;5.888;2022-09-17T03:54:19;12.82;;;2.63;;
32319;SDS011;19080;51.750;5.888;2022-09-17T03:56:45;16.73;;;2.65;;
32319;SDS011;19080;51.750;5.888;2022-09-17T03:59:12;11.75;;;2.15;;
32319;SDS011;19080;51.750;5.888;2022-09-17T04:01:38;13.77;;;2.85;;
32319;SDS011;19080;51.750;5.888;2022-09-17T04:04:05;13.15;;;2.17;;
32319;SDS011;19080;51.750;5.888;2022-09-17T04:06:31;12.68;;;2.35;;
32319;SDS011;19080;51.750;5.888;2022-09-17T04:08:58;11.65;;;2.08;;
32319;SDS011;19080;51.750;5.888;2022-09-17T04:11:26;7.82;;;2.20;;
32319;SDS011;19080;51.750;5.888;2022-09-17T04:13:52;9.70;;;1.88;;
32319;SDS011;19080;51.750;5.888;2022-09-17T04:16:19;9.25;;;1.80;;
32319;SDS011;19080;51.750;5.888;2022-09-17T04:18:45;10.95;;;2.40;;
32319;SDS011;19080;51.750;5.888;2022-09-17T04:21:11;10.15;;;2.42;;
32319;SDS011;19080;51.750;5.888;2022-09-17T04:23:38;12.38;;;2.00;;
32319;SDS011;19080;51.750;5.888;2022-09-17T04:26:04;11.45;;;2.08;;
32319;SDS011;19080;51.750;5.888;2022-09-17T04:28:31;10.20;;;1.60;;
32319;SDS011;19080;51.750;5.888;2022-09-17T04:30:57;12.52;;;2.05;;
32319;SDS011;19080;51.750;5.888;2022-09-17T04:33:23;11.95;;;2.30;;
32319;SDS011;19080;51.750;5.888;2022-09-17T04:35:50;13.88;;;2.15;;
32319;SDS011;19080;51.750;5.888;2022-09-17T04:38:16;14.60;;;2.50;;
32319;SDS011;19080;51.750;5.888;2022-09-17T04:40:45;9.75;;;2.03;;
32319;SDS011;19080;51.750;5.888;2022-09-17T04:43:12;7.03;;;2.17;;
32319;SDS011;19080;51.750;5.888;2022-09-17T04:45:38;13.65;;;2.45;;
32319;SDS011;19080;51.750;5.888;2022-09-17T04:48:05;11.98;;;2.13;;
32319;SDS011;19080;51.750;5.888;2022-09-17T04:50:31;14.48;;;3.20;;
32319;SDS011;19080;51.750;5.888;2022-09-17T04:52:58;12.52;;;2.13;;
32319;SDS011;19080;51.750;5.888;2022-09-17T04:55:24;10.23;;;1.98;;
32319;SDS011;19080;51.750;5.888;2022-09-17T04:57:52;11.10;;;2.83;;
32319;SDS011;19080;51.750;5.888;2022-09-17T05:00:19;11.40;;;2.35;;
32319;SDS011;19080;51.750;5.888;2022-09-17T05:02:47;16.25;;;3.10;;
32319;SDS011;19080;51.750;5.888;2022-09-17T05:05:14;12.45;;;2.42;;
32319;SDS011;19080;51.750;5.888;2022-09-17T05:07:41;14.30;;;2.38;;
32319;SDS011;19080;51.750;5.888;2022-09-17T05:10:08;11.98;;;2.13;;
32319;SDS011;19080;51.750;5.888;2022-09-17T05:12:34;9.75;;;2.17;;
32319;SDS011;19080;51.750;5.888;2022-09-17T05:15:01;8.43;;;2.40;;
32319;SDS011;19080;51.750;5.888;2022-09-17T05:17:27;11.25;;;2.20;;
32319;SDS011;19080;51.750;5.888;2022-09-17T05:19:54;8.10;;;2.25;;
32319;SDS011;19080;51.750;5.888;2022-09-17T05:22:20;7.65;;;1.67;;
32319;SDS011;19080;51.750;5.888;2022-09-17T05:24:47;10.43;;;2.20;;
32319;SDS011;19080;51.750;5.888;2022-09-17T05:27:13;9.40;;;1.83;;
32319;SDS011;19080;51.750;5.888;2022-09-17T05:29:39;8.63;;;2.05;;
32319;SDS011;19080;51.750;5.888;2022-09-17T05:32:06;10.57;;;2.22;;
32319;SDS011;19080;51.750;5.888;2022-09-17T05:34:32;12.85;;;2.08;;
32319;SDS011;19080;51.750;5.888;2022-09-17T05:36:59;10.25;;;1.80;;
32319;SDS011;19080;51.750;5.888;2022-09-17T05:39:25;8.55;;;2.08;;
32319;SDS011;19080;51.750;5.888;2022-09-17T05:41:52;9.02;;;2.03;;
32319;SDS011;19080;51.750;5.888;2022-09-17T05:44:18;11.70;;;2.28;;
32319;SDS011;19080;51.750;5.888;2022-09-17T05:46:45;7.32;;;1.70;;
32319;SDS011;19080;51.750;5.888;2022-09-17T05:49:12;11.90;;;2.70;;
32319;SDS011;19080;51.750;5.888;2022-09-17T05:51:38;7.07;;;1.45;;
32319;SDS011;19080;51.750;5.888;2022-09-17T05:54:04;8.68;;;1.67;;
32319;SDS011;19080;51.750;5.888;2022-09-17T05:56:31;12.35;;;2.00;;
32319;SDS011;19080;51.750;5.888;2022-09-17T05:58:57;13.00;;;2.00;;
32319;SDS011;19080;51.750;5.888;2022-09-17T06:01:24;8.05;;;1.85;;
32319;SDS011;19080;51.750;5.888;2022-09-17T06:03:51;7.30;;;1.77;;
32319;SDS011;19080;51.750;5.888;2022-09-17T06:06:17;9.57;;;1.90;;
32319;SDS011;19080;51.750;5.888;2022-09-17T06:08:44;9.63;;;2.17;;
32319;SDS011;19080;51.750;5.888;2022-09-17T06:11:10;14.13;;;3.35;;
32319;SDS011;19080;51.750;5.888;2022-09-17T06:13:37;11.88;;;2.00;;
32319;SDS011;19080;51.750;5.888;2022-09-17T06:16:03;13.25;;;2.70;;
32319;SDS011;19080;51.750;5.888;2022-09-17T06:18:30;10.35;;;1.95;;
32319;SDS011;19080;51.750;5.888;2022-09-17T06:21:00;15.05;;;2.65;;
32319;SDS011;19080;51.750;5.888;2022-09-17T06:23:30;10.90;;;2.08;;
32319;SDS011;19080;51.750;5.888;2022-09-17T06:25:58;8.77;;;2.20;;
32319;SDS011;19080;51.750;5.888;2022-09-17T06:28:25;7.00;;;1.98;;
32319;SDS011;19080;51.750;5.888;2022-09-17T06:30:52;7.07;;;1.92;;
32319;SDS011;19080;51.750;5.888;2022-09-17T06:33:21;8.55;;;2.00;;
32319;SDS011;19080;51.750;5.888;2022-09-17T06:35:48;8.70;;;1.85;;
32319;SDS011;19080;51.750;5.888;2022-09-17T06:38:14;9.55;;;1.73;;
32319;SDS011;19080;51.750;5.888;2022-09-17T06:40:41;8.82;;;1.60;;
32319;SDS011;19080;51.750;5.888;2022-09-17T06:43:07;11.32;;;1.67;;
32319;SDS011;19080;51.750;5.888;2022-09-17T06:45:34;9.23;;;1.50;;
32319;SDS011;19080;51.750;5.888;2022-09-17T06:48:02;11.63;;;2.10;;
32319;SDS011;19080;51.750;5.888;2022-09-17T06:50:29;7.22;;;1.77;;
32319;SDS011;19080;51.750;5.888;2022-09-17T06:52:56;8.25;;;1.40;;
32319;SDS011;19080;51.750;5.888;2022-09-17T06:55:22;10.43;;;2.03;;
32319;SDS011;19080;51.750;5.888;2022-09-17T06:57:49;9.82;;;1.90;;
32319;SDS011;19080;51.750;5.888;2022-09-17T07:00:15;14.13;;;1.70;;
32319;SDS011;19080;51.750;5.888;2022-09-17T07:02:42;12.85;;;1.80;;
32319;SDS011;19080;51.750;5.888;2022-09-17T07:05:09;7.70;;;1.50;;
32319;SDS011;19080;51.750;5.888;2022-09-17T07:07:36;7.75;;;1.70;;
32319;SDS011;19080;51.750;5.888;2022-09-17T07:10:02;7.63;;;1.63;;
32319;SDS011;19080;51.750;5.888;2022-09-17T07:12:28;6.45;;;1.92;;
32319;SDS011;19080;51.750;5.888;2022-09-17T07:14:55;8.10;;;1.60;;
32319;SDS011;19080;51.750;5.888;2022-09-17T07:17:21;4.00;;;1.25;;
32319;SDS011;19080;51.750;5.888;2022-09-17T07:19:48;6.72;;;1.50;;
32319;SDS011;19080;51.750;5.888;2022-09-17T07:22:14;7.53;;;1.70;;
32319;SDS011;19080;51.750;5.888;2022-09-17T07:24:41;6.03;;;1.38;;
32319;SDS011;19080;51.750;5.888;2022-09-17T07:27:07;5.88;;;1.40;;
32319;SDS011;19080;51.750;5.888;2022-09-17T07:29:34;6.93;;;1.70;;
32319;SDS011;19080;51.750;5.888;2022-09-17T07:32:00;7.82;;;2.10;;
32319;SDS011;19080;51.750;5.888;2022-09-17T07:34:27;6.00;;;1.30;;
32319;SDS011;19080;51.750;5.888;2022-09-17T07:36:54;7.68;;;2.20;;
32319;SDS011;19080;51.750;5.888;2022-09-17T07:39:20;7.13;;;1.23;;
32319;SDS011;19080;51.750;5.888;2022-09-17T07:41:46;6.93;;;1.42;;
32319;SDS011;19080;51.750;5.888;2022-09-17T07:44:13;9.23;;;1.70;;
32319;SDS011;19080;51.750;5.888;2022-09-17T07:46:40;7.57;;;1.45;;
32319;SDS011;19080;51.750;5.888;2022-09-17T07:49:07;7.00;;;1.40;;
32319;SDS011;19080;51.750;5.888;2022-09-17T07:51:33;6.63;;;1.25;;
32319;SDS011;19080;51.750;5.888;2022-09-17T07:53:59;6.70;;;1.45;;
32319;SDS011;19080;51.750;5.888;2022-09-17T07:56:27;7.53;;;1.52;;
32319;SDS011;19080;51.750;5.888;2022-09-17T07:58:53;6.47;;;1.20;;
32319;SDS011;19080;51.750;5.888;2022-09-17T08:01:20;6.30;;;1.23;;
32319;SDS011;19080;51.750;5.888;2022-09-17T08:03:48;4.85;;;1.58;;
32319;SDS011;19080;51.750;5.888;2022-09-17T08:06:19;6.90;;;1.30;;
32319;SDS011;19080;51.750;5.888;2022-09-17T08:08:46;4.28;;;1.58;;
32319;SDS011;19080;51.750;5.888;2022-09-17T08:11:14;6.32;;;1.35;;
32319;SDS011;19080;51.750;5.888;2022-09-17T08:13:57;7.43;;;1.83;;
32319;SDS011;19080;51.750;5.888;2022-09-17T08:16:25;6.38;;;1.17;;
32319;SDS011;19080;51.750;5.888;2022-09-17T08:18:55;5.30;;;1.30;;
32319;SDS011;19080;51.750;5.888;2022-09-17T08:21:22;4.75;;;1.17;;
32319;SDS011;19080;51.750;5.888;2022-09-17T08:23:49;7.97;;;1.48;;
32319;SDS011;19080;51.750;5.888;2022-09-17T08:26:19;5.25;;;1.10;;
32319;SDS011;19080;51.750;5.888;2022-09-17T08:31:15;7.60;;;1.48;;
32319;SDS011;19080;51.750;5.888;2022-09-17T08:33:42;6.25;;;1.38;;
32319;SDS011;19080;51.750;5.888;2022-09-17T08:36:09;3.63;;;1.17;;
32319;SDS011;19080;51.750;5.888;2022-09-17T08:38:36;6.97;;;1.45;;
32319;SDS011;19080;51.750;5.888;2022-09-17T08:41:08;5.72;;;1.65;;
32319;SDS011;19080;51.750;5.888;2022-09-17T08:43:46;5.38;;;1.15;;
32319;SDS011;19080;51.750;5.888;2022-09-17T08:46:15;8.13;;;1.27;;
32319;SDS011;19080;51.750;5.888;2022-09-17T08:51:48;7.10;;;1.67;;
32319;SDS011;19080;51.750;5.888;2022-09-17T08:56:47;6.35;;;1.17;;
32319;SDS011;19080;51.750;5.888;2022-09-17T09:06:48;5.03;;;1.00;;
32319;SDS011;19080;51.750;5.888;2022-09-17T09:09:16;7.15;;;1.10;;
32319;SDS011;19080;51.750;5.888;2022-09-17T09:11:44;6.43;;;1.30;;
32319;SDS011;19080;51.750;5.888;2022-09-17T09:14:18;2.63;;;0.98;;
32319;SDS011;19080;51.750;5.888;2022-09-17T09:16:47;2.40;;;0.75;;
32319;SDS011;19080;51.750;5.888;2022-09-17T09:21:47;4.68;;;0.88;;
32319;SDS011;19080;51.750;5.888;2022-09-17T09:26:48;6.07;;;1.23;;
32319;SDS011;19080;51.750;5.888;2022-09-17T09:34:45;3.83;;;0.82;;
32319;SDS011;19080;51.750;5.888;2022-09-17T09:37:21;5.60;;;1.45;;
32319;SDS011;19080;51.750;5.888;2022-09-17T09:39:50;2.47;;;0.70;;
32319;SDS011;19080;51.750;5.888;2022-09-17T09:42:21;6.80;;;1.20;;
32319;SDS011;19080;51.750;5.888;2022-09-17T09:44:49;3.13;;;0.90;;
32319;SDS011;19080;51.750;5.888;2022-09-17T09:47:19;4.45;;;0.93;;
32319;SDS011;19080;51.750;5.888;2022-09-17T09:55:09;7.13;;;0.98;;
32319;SDS011;19080;51.750;5.888;2022-09-17T09:57:40;5.35;;;1.08;;
32319;SDS011;19080;51.750;5.888;2022-09-17T10:05:22;3.22;;;0.82;;
32319;SDS011;19080;51.750;5.888;2022-09-17T10:07:49;3.08;;;0.63;;
32319;SDS011;19080;51.750;5.888;2022-09-17T10:10:16;6.13;;;1.08;;
32319;SDS011;19080;51.750;5.888;2022-09-17T10:12:43;1.10;;;0.52;;
32319;SDS011;19080;51.750;5.888;2022-09-17T10:15:23;0.95;;;0.47;;
32319;SDS011;19080;51.750;5.888;2022-09-17T10:20:36;1.45;;;0.60;;
32319;SDS011;19080;51.750;5.888;2022-09-17T10:23:14;2.78;;;0.73;;
32319;SDS011;19080;51.750;5.888;2022-09-17T10:25:41;4.35;;;0.80;;
32319;SDS011;19080;51.750;5.888;2022-09-17T10:28:20;5.10;;;0.90;;
32319;SDS011;19080;51.750;5.888;2022-09-17T10:31:00;3.20;;;0.93;;
32319;SDS011;19080;51.750;5.888;2022-09-17T10:33:33;2.33;;;0.73;;
32319;SDS011;19080;51.750;5.888;2022-09-17T10:36:04;2.63;;;0.80;;
32319;SDS011;19080;51.750;5.888;2022-09-17T10:38:33;2.67;;;0.80;;
32319;SDS011;19080;51.750;5.888;2022-09-17T10:43:34;4.78;;;1.10;;
32319;SDS011;19080;51.750;5.888;2022-09-17T10:46:00;3.70;;;1.20;;
32319;SDS011;19080;51.750;5.888;2022-09-17T10:48:30;3.50;;;0.90;;
32319;SDS011;19080;51.750;5.888;2022-09-17T10:50:57;4.80;;;0.98;;
32319;SDS011;19080;51.750;5.888;2022-09-17T10:53:27;4.95;;;1.25;;
32319;SDS011;19080;51.750;5.888;2022-09-17T10:56:00;7.05;;;1.40;;
32319;SDS011;19080;51.750;5.888;2022-09-17T10:59:16;12.63;;;2.05;;
32319;SDS011;19080;51.750;5.888;2022-09-17T11:01:36;13.20;;;1.70;;
32319;SDS011;19080;51.750;5.888;2022-09-17T11:07:02;3.25;;;0.70;;
32319;SDS011;19080;51.750;5.888;2022-09-17T11:25:20;5.65;;;1.42;;
32319;SDS011;19080;51.750;5.888;2022-09-17T11:30:20;4.05;;;0.68;;
32319;SDS011;19080;51.750;5.888;2022-09-17T11:35:48;4.15;;;1.20;;
32319;SDS011;19080;51.750;5.888;2022-09-17T11:38:20;4.38;;;0.90;;
32319;SDS011;19080;51.750;5.888;2022-09-17T11:40:51;3.10;;;1.02;;
32319;SDS011;19080;51.750;5.888;2022-09-17T11:43:29;5.88;;;1.30;;
32319;SDS011;19080;51.750;5.888;2022-09-17T11:49:28;3.33;;;1.00;;
32319;SDS011;19080;51.750;5.888;2022-09-17T11:51:22;3.75;;;1.17;;
32319;SDS011;19080;51.750;5.888;2022-09-17T11:56:24;4.85;;;1.25;;
32319;SDS011;19080;51.750;5.888;2022-09-17T11:58:59;4.97;;;1.15;;
32319;SDS011;19080;51.750;5.888;2022-09-17T12:01:34;7.38;;;1.35;;
32319;SDS011;19080;51.750;5.888;2022-09-17T12:09:12;7.63;;;1.52;;
32319;SDS011;19080;51.750;5.888;2022-09-17T12:11:44;4.57;;;1.48;;
32319;SDS011;19080;51.750;5.888;2022-09-17T12:14:22;6.93;;;1.95;;
32319;SDS011;19080;51.750;5.888;2022-09-17T12:16:51;8.02;;;1.40;;
32319;SDS011;19080;51.750;5.888;2022-09-17T12:19:21;8.63;;;1.60;;
32319;SDS011;19080;51.750;5.888;2022-09-17T12:21:55;8.48;;;1.70;;
32319;SDS011;19080;51.750;5.888;2022-09-17T12:24:27;9.18;;;1.92;;
32319;SDS011;19080;51.750;5.888;2022-09-17T12:37:30;9.20;;;1.85;;
32319;SDS011;19080;51.750;5.888;2022-09-17T12:42:33;4.90;;;1.38;;
32319;SDS011;19080;51.750;5.888;2022-09-17T12:53:20;6.40;;;1.35;;
32319;SDS011;19080;51.750;5.888;2022-09-17T12:58:37;6.28;;;1.45;;
32319;SDS011;19080;51.750;5.888;2022-09-17T13:01:51;7.40;;;1.52;;
32319;SDS011;19080;51.750;5.888;2022-09-17T13:04:09;6.03;;;1.63;;
32319;SDS011;19080;51.750;5.888;2022-09-17T13:16:55;5.35;;;1.60;;
32319;SDS011;19080;51.750;5.888;2022-09-17T13:19:37;3.88;;;1.30;;
32319;SDS011;19080;51.750;5.888;2022-09-17T13:22:05;4.20;;;1.00;;
32319;SDS011;19080;51.750;5.888;2022-09-17T13:24:32;4.38;;;1.13;;
32319;SDS011;19080;51.750;5.888;2022-09-17T13:27:00;3.03;;;0.70;;
32319;SDS011;19080;51.750;5.888;2022-09-17T13:29:55;3.70;;;1.13;;
32319;SDS011;19080;51.750;5.888;2022-09-17T13:37:43;6.60;;;1.17;;
32319;SDS011;19080;51.750;5.888;2022-09-17T13:42:47;4.85;;;0.85;;
32319;SDS011;19080;51.750;5.888;2022-09-17T13:45:15;1.67;;;0.60;;
32319;SDS011;19080;51.750;5.888;2022-09-17T13:50:24;3.47;;;1.00;;
32319;SDS011;19080;51.750;5.888;2022-09-17T13:52:51;4.47;;;1.23;;
32319;SDS011;19080;51.750;5.888;2022-09-17T13:55:29;5.55;;;1.58;;
32319;SDS011;19080;51.750;5.888;2022-09-17T13:57:56;6.20;;;1.42;;
32319;SDS011;19080;51.750;5.888;2022-09-17T14:05:54;2.85;;;0.70;;
32319;SDS011;19080;51.750;5.888;2022-09-17T14:08:24;2.63;;;0.80;;
32319;SDS011;19080;51.750;5.888;2022-09-17T14:10:54;2.33;;;0.80;;
32319;SDS011;19080;51.750;5.888;2022-09-17T14:13:33;4.20;;;1.02;;
32319;SDS011;19080;51.750;5.888;2022-09-17T14:16:20;3.25;;;1.10;;
32319;SDS011;19080;51.750;5.888;2022-09-17T14:18:58;4.30;;;0.80;;
32319;SDS011;19080;51.750;5.888;2022-09-17T14:21:31;4.13;;;1.15;;
32319;SDS011;19080;51.750;5.888;2022-09-17T14:23:59;4.47;;;1.25;;
32319;SDS011;19080;51.750;5.888;2022-09-17T14:29:34;6.50;;;1.67;;
32319;SDS011;19080;51.750;5.888;2022-09-17T14:31:58;5.07;;;1.67;;
32319;SDS011;19080;51.750;5.888;2022-09-17T14:34:25;8.18;;;1.77;;
32319;SDS011;19080;51.750;5.888;2022-09-17T14:36:52;8.68;;;1.65;;
32319;SDS011;19080;51.750;5.888;2022-09-17T14:39:37;6.28;;;2.05;;
32319;SDS011;19080;51.750;5.888;2022-09-17T14:42:06;6.10;;;1.52;;
32319;SDS011;19080;51.750;5.888;2022-09-17T14:44:43;5.45;;;1.15;;
32319;SDS011;19080;51.750;5.888;2022-09-17T14:47:13;4.22;;;1.40;;
32319;SDS011;19080;51.750;5.888;2022-09-17T14:49:41;5.60;;;1.58;;
32319;SDS011;19080;51.750;5.888;2022-09-17T14:52:27;4.65;;;0.90;;
32319;SDS011;19080;51.750;5.888;2022-09-17T14:57:35;4.57;;;1.25;;
32319;SDS011;19080;51.750;5.888;2022-09-17T15:00:02;5.70;;;1.00;;
32319;SDS011;19080;51.750;5.888;2022-09-17T15:02:40;5.40;;;1.38;;
32319;SDS011;19080;51.750;5.888;2022-09-17T15:07:35;5.43;;;1.35;;
32319;SDS011;19080;51.750;5.888;2022-09-17T15:10:11;11.70;;;1.80;;
32319;SDS011;19080;51.750;5.888;2022-09-17T15:12:38;6.60;;;1.15;;
32319;SDS011;19080;51.750;5.888;2022-09-17T15:15:05;8.40;;;1.60;;
32319;SDS011;19080;51.750;5.888;2022-09-17T15:17:32;4.53;;;1.33;;
32319;SDS011;19080;51.750;5.888;2022-09-17T15:19:58;4.20;;;1.17;;
32319;SDS011;19080;51.750;5.888;2022-09-17T15:22:48;7.25;;;1.95;;
32319;SDS011;19080;51.750;5.888;2022-09-17T15:25:19;7.20;;;1.42;;
32319;SDS011;19080;51.750;5.888;2022-09-17T15:27:48;7.53;;;1.83;;
32319;SDS011;19080;51.750;5.888;2022-09-17T15:30:20;6.22;;;1.45;;
32319;SDS011;19080;51.750;5.888;2022-09-17T15:35:17;9.00;;;1.80;;
32319;SDS011;19080;51.750;5.888;2022-09-17T15:37:45;9.38;;;2.08;;
32319;SDS011;19080;51.750;5.888;2022-09-17T15:40:32;7.38;;;1.42;;
32319;SDS011;19080;51.750;5.888;2022-09-17T15:45:26;7.85;;;1.80;;
32319;SDS011;19080;51.750;5.888;2022-09-17T15:47:54;11.40;;;1.83;;
32319;SDS011;19080;51.750;5.888;2022-09-17T15:50:22;6.45;;;2.20;;
32319;SDS011;19080;51.750;5.888;2022-09-17T15:52:50;7.18;;;1.70;;
32319;SDS011;19080;51.750;5.888;2022-09-17T15:55:30;7.88;;;1.90;;
32319;SDS011;19080;51.750;5.888;2022-09-17T15:57:57;6.40;;;1.90;;
32319;SDS011;19080;51.750;5.888;2022-09-17T16:00:24;8.90;;;1.98;;
32319;SDS011;19080;51.750;5.888;2022-09-17T16:02:51;8.05;;;1.58;;
32319;SDS011;19080;51.750;5.888;2022-09-17T16:07:51;9.02;;;1.50;;
32319;SDS011;19080;51.750;5.888;2022-09-17T16:10:18;7.65;;;2.10;;
32319;SDS011;19080;51.750;5.888;2022-09-17T16:12:47;11.82;;;2.33;;
32319;SDS011;19080;51.750;5.888;2022-09-17T16:15:14;8.52;;;2.08;;
32319;SDS011;19080;51.750;5.888;2022-09-17T16:17:44;9.88;;;1.95;;
32319;SDS011;19080;51.750;5.888;2022-09-17T16:22:38;6.35;;;1.85;;
32319;SDS011;19080;51.750;5.888;2022-09-17T16:25:05;8.20;;;2.80;;
32319;SDS011;19080;51.750;5.888;2022-09-17T16:27:38;9.70;;;2.13;;
32319;SDS011;19080;51.750;5.888;2022-09-17T16:30:12;10.38;;;2.60;;
32319;SDS011;19080;51.750;5.888;2022-09-17T16:32:39;9.75;;;2.20;;
32319;SDS011;19080;51.750;5.888;2022-09-17T16:35:05;7.25;;;1.95;;
32319;SDS011;19080;51.750;5.888;2022-09-17T16:37:33;11.98;;;2.08;;
32319;SDS011;19080;51.750;5.888;2022-09-17T16:39:59;5.22;;;1.48;;
32319;SDS011;19080;51.750;5.888;2022-09-17T16:42:30;11.25;;;2.85;;
32319;SDS011;19080;51.750;5.888;2022-09-17T16:44:57;7.53;;;2.20;;
32319;SDS011;19080;51.750;5.888;2022-09-17T16:47:26;10.80;;;1.95;;
32319;SDS011;19080;51.750;5.888;2022-09-17T16:49:52;12.02;;;2.10;;
32319;SDS011;19080;51.750;5.888;2022-09-17T16:52:19;11.85;;;2.20;;
32319;SDS011;19080;51.750;5.888;2022-09-17T16:54:45;8.77;;;2.40;;
32319;SDS011;19080;51.750;5.888;2022-09-17T16:57:11;8.27;;;2.00;;
32319;SDS011;19080;51.750;5.888;2022-09-17T16:59:38;10.98;;;1.50;;
32319;SDS011;19080;51.750;5.888;2022-09-17T17:02:04;14.00;;;1.80;;
32319;SDS011;19080;51.750;5.888;2022-09-17T17:04:31;8.95;;;2.03;;
32319;SDS011;19080;51.750;5.888;2022-09-17T17:06:58;6.05;;;1.55;;
32319;SDS011;19080;51.750;5.888;2022-09-17T17:09:25;9.30;;;1.90;;
32319;SDS011;19080;51.750;5.888;2022-09-17T17:11:52;8.63;;;1.85;;
32319;SDS011;19080;51.750;5.888;2022-09-17T17:14:19;12.23;;;2.05;;
32319;SDS011;19080;51.750;5.888;2022-09-17T17:16:46;12.90;;;1.75;;
32319;SDS011;19080;51.750;5.888;2022-09-17T17:19:12;8.02;;;1.60;;
32319;SDS011;19080;51.750;5.888;2022-09-17T17:21:38;8.68;;;1.58;;
32319;SDS011;19080;51.750;5.888;2022-09-17T17:24:11;10.50;;;1.85;;
32319;SDS011;19080;51.750;5.888;2022-09-17T17:26:38;12.93;;;2.00;;
32319;SDS011;19080;51.750;5.888;2022-09-17T17:29:04;8.18;;;1.85;;
32319;SDS011;19080;51.750;5.888;2022-09-17T17:31:30;13.43;;;2.70;;
32319;SDS011;19080;51.750;5.888;2022-09-17T17:33:57;9.32;;;2.13;;
32319;SDS011;19080;51.750;5.888;2022-09-17T17:36:24;16.45;;;2.17;;
32319;SDS011;19080;51.750;5.888;2022-09-17T17:38:54;12.57;;;2.45;;
32319;SDS011;19080;51.750;5.888;2022-09-17T17:41:21;13.52;;;3.08;;
32319;SDS011;19080;51.750;5.888;2022-09-17T17:43:54;14.43;;;2.35;;
32319;SDS011;19080;51.750;5.888;2022-09-17T17:46:21;13.40;;;2.03;;
32319;SDS011;19080;51.750;5.888;2022-09-17T17:48:48;5.07;;;1.40;;
32319;SDS011;19080;51.750;5.888;2022-09-17T17:51:15;6.55;;;1.58;;